Time;durP1;ratioP1;P1;durP2;ratioP2;P2;SDS_P1;SDS_P2;PMS_P1;PMS_P2;Temp;Humidity;BMP_temperature;BMP_pressure;BME280_temperature;BME280_humidity;BME280_pressure;Samples;Min_cycle;Max_cycle;Signal;HPM_P1;HPM_P2
2023/04/23 00:00:07;;;;;;;21.70;18.98;;;;;;;13.45;74.01;99510.69;5050917;28;20486;-59
2023/04/23 00:02:36;;;;;;;21.60;18.90;;;;;;;13.46;73.80;99513.16;5052513;28;20068;-59
2023/04/23 00:05:06;;;;;;;22.00;19.52;;;;;;;13.44;74.02;99504.28;5053650;28;20094;-59
2023/04/23 00:07:37;;;;;;;20.60;17.85;;;;;;;13.45;74.61;99513.50;5053700;28;20521;-58
2023/04/23 00:10:07;;;;;;;21.65;18.20;;;;;;;13.44;74.03;99514.66;5050800;28;20492;-58
2023/04/23 00:12:35;;;;;;;19.50;17.40;;;;;;;13.40;74.25;99514.56;5037238;28;20049;-58
2023/04/23 00:15:05;;;;;;;21.77;19.23;;;;;;;13.38;74.01;99516.91;5033471;28;20061;-59
2023/04/23 00:17:32;;;;;;;;;;;;;;;13.28;73.19;99509.00;5049810;28;20405;-58
2023/04/23 00:19:59;;;;;;;22.40;18.88;;;;;;;13.35;74.65;99510.03;5053619;28;19927;-58
2023/04/23 00:22:27;;;;;;;22.08;18.35;;;;;;;13.30;74.08;99510.28;5053263;28;20064;-59
2023/04/23 00:24:55;;;;;;;24.33;21.00;;;;;;;13.30;74.79;99506.69;5053417;28;20064;-58
2023/04/23 00:27:26;;;;;;;22.13;19.52;;;;;;;13.29;73.70;99505.88;5053580;28;20049;-58
2023/04/23 00:29:53;;;;;;;21.00;18.38;;;;;;;13.18;73.29;99499.94;5053283;28;20053;-58
2023/04/23 00:32:24;;;;;;;23.05;20.30;;;;;;;13.19;74.35;99498.78;5035944;28;20060;-58
2023/04/23 00:34:51;;;;;;;23.15;19.70;;;;;;;13.24;73.97;99496.91;5033149;28;20054;-58
2023/04/23 00:37:19;;;;;;;22.58;20.17;;;;;;;13.24;74.61;99494.91;5033105;28;20045;-58
2023/04/23 00:39:46;;;;;;;23.98;21.02;;;;;;;13.23;74.26;99489.66;5033316;28;20064;-58
2023/04/23 00:42:16;;;;;;;23.30;20.05;;;;;;;13.22;74.93;99486.06;5033449;28;20060;-58
2023/04/23 00:44:46;;;;;;;;;;;;;;;13.20;73.45;99482.81;5033446;28;20049;-56
2023/04/23 00:47:15;;;;;;;25.95;21.42;;;;;;;13.14;74.03;99495.41;5048781;28;20304;-58
2023/04/23 00:49:42;;;;;;;24.87;22.20;;;;;;;13.15;74.58;99494.25;5053030;28;20052;-60
2023/04/23 00:52:10;;;;;;;25.08;20.90;;;;;;;13.14;74.98;99498.22;5052954;28;20825;-59
2023/04/23 00:54:37;;;;;;;24.08;21.40;;;;;;;13.10;74.99;99489.75;5052703;28;20053;-60
2023/04/23 00:57:07;;;;;;;27.38;21.92;;;;;;;13.04;73.79;99493.13;5053305;28;20049;-58
2023/04/23 00:59:36;;;;;;;;;;;;;;;12.97;73.54;99497.31;5053354;28;20056;-58
2023/04/23 01:02:03;;;;;;;26.30;22.88;;;;;;;12.91;74.12;99492.34;5045706;28;19924;-58
2023/04/23 01:04:32;;;;;;;26.70;23.20;;;;;;;12.94;74.29;99489.66;5051720;28;20053;-58
2023/04/23 01:06:59;;;;;;;25.98;20.75;;;;;;;12.94;74.13;99495.25;5052098;28;20059;-58
2023/04/23 01:09:27;;;;;;;28.30;22.98;;;;;;;12.89;74.15;99497.47;5052226;28;20147;-60
2023/04/23 01:11:58;;;;;;;26.30;22.30;;;;;;;12.93;74.17;99493.63;5052511;28;20064;-60
2023/04/23 01:14:27;;;;;;;24.75;21.38;;;;;;;12.98;74.88;99498.16;5052450;28;20497;-60
2023/04/23 01:16:57;;;;;;;25.35;21.48;;;;;;;12.95;75.02;99498.84;5041564;28;20050;-59
2023/04/23 01:19:24;;;;;;;25.08;20.77;;;;;;;12.96;74.79;99500.50;5032752;28;20053;-58
2023/04/23 01:21:51;;;;;;;25.67;22.75;;;;;;;12.97;74.72;99502.13;5032149;28;20054;-58
2023/04/23 01:24:20;;;;;;;28.30;22.45;;;;;;;13.02;75.58;99492.66;5032678;28;20065;-58
2023/04/23 01:26:51;;;;;;;27.60;23.73;;;;;;;12.98;75.37;99495.38;5032792;28;20065;-58
2023/04/23 01:29:19;;;;;;;30.00;23.52;;;;;;;13.03;75.11;99495.09;5032729;28;20060;-59
2023/04/23 01:31:47;;;;;;;28.20;24.17;;;;;;;13.02;75.41;99492.66;5042427;28;20052;-60
2023/04/23 01:34:15;;;;;;;28.33;22.85;;;;;;;13.02;75.26;99487.06;5052387;28;20064;-57
2023/04/23 01:36:44;;;;;;;28.75;23.80;;;;;;;13.05;75.25;99491.97;5052456;28;20049;-60
2023/04/23 01:39:11;;;;;;;28.20;22.40;;;;;;;13.05;74.62;99489.16;5052438;28;20049;-59
2023/04/23 01:41:41;;;;;;;28.27;23.05;;;;;;;13.04;75.43;99493.94;5052572;28;20414;-59
2023/04/23 01:44:10;;;;;;;27.95;23.33;;;;;;;13.07;74.82;99492.41;5052046;28;20059;-59
2023/04/23 01:46:37;;;;;;;;;;;;;;;13.02;74.17;99487.91;5048984;28;20045;-60
2023/04/23 01:49:05;;;;;;;28.20;23.40;;;;;;;12.98;75.03;99482.19;5052151;28;20297;-59
2023/04/23 01:51:33;;;;;;;28.23;24.05;;;;;;;13.00;75.50;99495.81;5052294;28;20052;-59
2023/04/23 01:54:00;;;;;;;29.25;24.60;;;;;;;13.06;75.33;99497.22;5052254;28;20426;-59
2023/04/23 01:56:29;;;;;;;29.83;23.75;;;;;;;13.07;75.81;99498.81;5052187;28;20060;-60
2023/04/23 01:58:58;;;;;;;28.10;24.48;;;;;;;13.08;74.95;99502.41;5052145;28;20103;-60
2023/04/23 02:01:25;;;;;;;28.23;24.65;;;;;;;13.04;75.62;99501.50;5042717;28;20478;-59
2023/04/23 02:03:52;;;;;;;27.23;22.65;;;;;;;13.03;74.78;99492.31;5035205;28;20056;-59
2023/04/23 02:06:19;;;;;;;25.52;21.77;;;;;;;12.92;74.76;99494.78;5048306;28;20064;-60
2023/04/23 02:08:47;;;;;;;26.50;22.92;;;;;;;12.92;74.54;99500.38;5051854;28;20056;-59
2023/04/23 02:11:15;;;;;;;25.65;21.17;;;;;;;12.92;75.01;99500.38;5051693;28;20053;-59
2023/04/23 02:13:42;;;;;;;23.00;19.95;;;;;;;12.91;74.13;99503.53;5051947;28;20063;-59
2023/04/23 02:16:11;;;;;;;25.58;21.40;;;;;;;12.89;74.61;99501.09;5048510;28;20064;-60
2023/04/23 02:18:48;;;;;;;25.27;21.48;;;;;;;12.90;74.22;99502.72;5043681;28;21444;-59
2023/04/23 02:21:15;;;;;;;24.02;20.33;;;;;;;12.78;73.84;99506.34;5022659;28;20061;-59
2023/04/23 02:23:42;;;;;;;24.67;20.90;;;;;;;12.73;73.56;99497.41;5030004;28;20049;-59
2023/04/23 02:26:09;;;;;;;21.98;19.05;;;;;;;12.71;73.75;99506.16;5038057;28;20410;-59
2023/04/23 02:28:37;;;;;;;23.13;19.10;;;;;;;12.67;73.19;99498.81;5044003;28;20410;-59
2023/04/23 02:31:05;;;;;;;25.13;20.77;;;;;;;12.58;73.38;99496.97;5034590;28;20057;-59
2023/04/23 02:33:37;;;;;;;24.60;20.55;;;;;;;12.57;73.82;99498.13;5052884;28;20075;-59
2023/04/23 02:36:04;;;;;;;24.15;20.83;;;;;;;12.55;73.98;99494.06;5046469;28;20069;-59
2023/04/23 02:38:31;;;;;;;25.40;21.65;;;;;;;12.49;74.58;99487.91;5052880;28;20049;-59
2023/04/23 02:40:59;;;;;;;26.73;22.25;;;;;;;12.43;75.16;99486.53;5040109;28;20054;-60
2023/04/23 02:43:26;;;;;;;24.50;19.98;;;;;;;12.43;74.91;99488.50;5051079;28;20486;-60
2023/04/23 02:45:53;;;;;;;23.80;19.95;;;;;;;12.43;74.42;99480.13;5044886;28;20049;-59
2023/04/23 02:48:21;;;;;;;25.13;21.38;;;;;;;12.38;74.97;99483.97;5044878;28;20060;-60
2023/04/23 02:50:50;;;;;;;22.48;18.80;;;;;;;12.31;74.28;99489.34;5045209;28;20048;-60
2023/04/23 02:53:17;;;;;;;24.67;19.95;;;;;;;12.26;74.73;99493.16;5049866;28;20048;-59
2023/04/23 02:55:47;;;;;;;23.23;18.90;;;;;;;12.17;74.48;99492.47;5047912;28;20517;-59
2023/04/23 02:58:17;;;;;;;24.92;19.05;;;;;;;12.06;74.58;99496.91;5047538;28;20053;-59
2023/04/23 03:00:44;;;;;;;20.33;17.27;;;;;;;11.95;74.53;99491.78;5042407;28;20064;-59
2023/04/23 03:03:12;;;;;;;22.05;17.75;;;;;;;11.85;74.50;99485.81;5042640;28;20064;-59
2023/04/23 03:05:39;;;;;;;21.42;17.23;;;;;;;11.76;74.53;99483.13;5050750;28;20049;-59
2023/04/23 03:08:08;;;;;;;24.23;17.55;;;;;;;11.69;74.53;99486.47;5054131;28;20123;-59
2023/04/23 03:10:35;;;;;;;19.27;16.58;;;;;;;11.65;74.60;99485.53;5049925;28;20053;-59
2023/04/23 03:13:02;;;;;;;22.58;18.90;;;;;;;11.61;74.30;99481.00;5053057;28;20513;-59
2023/04/23 03:15:30;;;;;;;18.42;16.17;;;;;;;11.57;74.62;99486.47;5045466;28;20048;-59
2023/04/23 03:17:58;;;;;;;20.10;16.88;;;;;;;11.52;74.44;99489.47;5053181;28;20399;-59
2023/04/23 03:20:25;;;;;;;20.00;17.13;;;;;;;11.51;74.43;99479.47;5052627;28;20053;-59
2023/04/23 03:22:52;;;;;;;19.70;17.30;;;;;;;11.47;74.64;99479.34;5049606;28;20434;-59
2023/04/23 03:25:24;;;;;;;22.83;17.70;;;;;;;11.43;74.62;99486.78;5051752;28;20060;-59
2023/04/23 03:27:52;;;;;;;19.30;17.23;;;;;;;11.40;75.04;99481.06;5034301;28;20049;-59
2023/04/23 03:30:20;;;;;;;19.65;17.08;;;;;;;11.32;74.49;99491.97;5033655;28;20056;-59
2023/04/23 03:32:47;;;;;;;20.70;17.92;;;;;;;11.25;74.69;99485.31;5054492;28;20053;-59
2023/04/23 03:35:14;;;;;;;20.70;17.65;;;;;;;11.20;74.62;99488.34;5054521;28;20080;-59
2023/04/23 03:37:41;;;;;;;22.05;17.55;;;;;;;11.16;75.41;99479.84;5053263;28;20487;-59
2023/04/23 03:40:12;;;;;;;21.55;18.27;;;;;;;11.11;75.25;99480.88;5052894;28;20049;-59
2023/04/23 03:42:41;;;;;;;21.85;18.45;;;;;;;11.10;75.74;99470.06;5053469;28;20057;-59
2023/04/23 03:45:10;;;;;;;24.08;18.85;;;;;;;11.12;75.75;99476.91;5039359;28;20049;-59
2023/04/23 03:47:37;;;;;;;25.90;20.67;;;;;;;11.14;76.01;99471.00;5034000;28;20406;-59
2023/04/23 03:50:05;;;;;;;24.75;19.50;;;;;;;11.21;75.78;99467.66;5037965;28;20049;-59
2023/04/23 03:52:32;;;;;;;24.88;19.80;;;;;;;11.24;75.75;99469.78;5046757;28;20053;-59
2023/04/23 03:55:00;;;;;;;21.95;18.20;;;;;;;11.25;75.92;99463.81;5036056;28;20418;-59
2023/04/23 03:57:27;;;;;;;24.67;21.40;;;;;;;11.28;75.91;99465.94;5049993;28;20391;-59
2023/04/23 03:59:56;;;;;;;24.10;19.67;;;;;;;11.29;76.02;99464.78;5037784;28;20060;-58
2023/04/23 04:02:23;;;;;;;23.05;19.10;;;;;;;11.30;76.22;99466.41;5042917;28;20124;-58
2023/04/23 04:04:50;;;;;;;23.05;19.60;;;;;;;11.31;75.81;99465.25;5037595;28;20499;-58
2023/04/23 04:07:18;;;;;;;20.08;17.27;;;;;;;11.29;76.15;99459.19;5035942;28;20053;-59
2023/04/23 04:09:45;;;;;;;22.33;19.75;;;;;;;11.33;75.86;99453.75;5033038;28;20049;-58
2023/04/23 04:12:13;;;;;;;20.75;17.40;;;;;;;11.35;76.27;99468.97;5048386;28;20057;-59
2023/04/23 04:14:40;;;;;;;21.92;19.10;;;;;;;11.34;76.05;99458.19;5051314;28;20540;-59
2023/04/23 04:17:09;;;;;;;21.80;18.40;;;;;;;11.33;76.28;99462.13;5045235;28;20057;-59
2023/04/23 04:19:37;;;;;;;23.42;19.83;;;;;;;11.27;75.63;99464.28;5046421;28;20462;-59
2023/04/23 04:22:04;;;;;;;25.95;20.05;;;;;;;11.27;75.66;99460.69;5050923;28;20053;-59
2023/04/23 04:24:31;;;;;;;25.42;20.63;;;;;;;11.25;75.85;99460.22;5052015;28;20049;-59
2023/04/23 04:26:59;;;;;;;21.08;17.88;;;;;;;11.33;76.09;99462.91;5047551;28;20045;-59
2023/04/23 04:29:26;;;;;;;23.48;19.88;;;;;;;11.33;75.62;99462.91;5033199;28;20507;-59
2023/04/23 04:31:55;;;;;;;25.17;20.75;;;;;;;11.40;76.02;99453.19;5037686;28;20057;-59
2023/04/23 04:34:23;;;;;;;22.40;19.50;;;;;;;11.41;75.84;99452.03;5049456;28;20053;-58
2023/04/23 04:36:52;;;;;;;25.05;21.50;;;;;;;11.42;75.73;99448.06;5035375;28;20052;-59
2023/04/23 04:39:19;;;;;;;22.00;18.03;;;;;;;11.51;76.24;99448.81;5053317;28;20053;-59
2023/04/23 04:41:47;;;;;;;22.50;18.88;;;;;;;11.55;75.88;99444.16;5051489;28;20533;-59
2023/04/23 04:44:15;;;;;;;21.67;18.05;;;;;;;11.63;76.07;99445.22;5033041;28;20517;-59
2023/04/23 04:46:45;;;;;;;24.42;20.85;;;;;;;11.65;75.78;99438.13;5037885;28;20053;-59
2023/04/23 04:49:12;;;;;;;24.23;20.45;;;;;;;11.71;75.95;99438.72;5050192;28;20049;-58
2023/04/23 04:51:41;;;;;;;23.85;19.38;;;;;;;11.76;76.18;99444.88;5044054;28;20049;-59
2023/04/23 04:54:08;;;;;;;22.67;18.80;;;;;;;11.83;76.27;99443.50;5051319;28;20530;-59
2023/04/23 04:56:35;;;;;;;23.00;19.17;;;;;;;11.88;76.41;99440.47;5050989;28;20510;-58
2023/04/23 04:59:03;;;;;;;23.48;19.13;;;;;;;11.92;76.55;99442.22;5043430;28;20477;-59
2023/04/23 05:01:32;;;;;;;26.30;20.98;;;;;;;11.94;76.74;99444.69;5032299;28;20045;-59
2023/04/23 05:04:11;;;;;;;21.95;18.95;;;;;;;11.95;76.33;99444.34;5049339;28;20068;-59
2023/04/23 05:06:38;;;;;;;25.57;21.07;;;;;;;11.95;76.72;99449.91;5045456;28;20399;-59
2023/04/23 05:09:07;;;;;;;24.73;20.23;;;;;;;11.91;76.64;99442.59;5044168;28;20479;-58
2023/04/23 05:11:34;;;;;;;24.60;19.63;;;;;;;11.90;75.85;99449.31;5052304;28;20053;-58
2023/04/23 05:14:03;;;;;;;24.33;20.10;;;;;;;11.87;75.87;99447.22;5052442;28;20053;-58
2023/04/23 05:16:30;;;;;;;23.42;19.35;;;;;;;11.81;76.36;99452.19;5048127;28;20053;-58
2023/04/23 05:18:58;;;;;;;25.55;21.48;;;;;;;11.76;75.79;99444.88;5041702;28;20053;-58
2023/04/23 05:21:26;;;;;;;21.48;17.52;;;;;;;11.86;76.31;99454.75;5045950;28;20055;-58
2023/04/23 05:23:53;;;;;;;25.83;21.15;;;;;;;11.81;76.10;99451.41;5052414;28;20052;-58
2023/04/23 05:26:22;;;;;;;25.88;21.10;;;;;;;11.81;76.03;99456.97;5052452;28;20064;-58
2023/04/23 05:28:49;;;;;;;25.25;19.90;;;;;;;11.80;76.35;99450.59;5052103;28;20075;-58
2023/04/23 05:31:16;;;;;;;22.52;17.80;;;;;;;11.75;75.78;99443.25;5046988;28;20057;-58
2023/04/23 05:33:45;;;;;;;25.20;19.50;;;;;;;11.66;75.49;99445.34;5050930;28;20052;-58
2023/04/23 05:36:13;;;;;;;23.63;18.92;;;;;;;11.73;75.46;99439.97;5050103;28;20062;-58
2023/04/23 05:38:40;;;;;;;21.83;17.67;;;;;;;11.75;75.03;99451.59;5049592;28;20049;-58
2023/04/23 05:41:07;;;;;;;24.42;19.55;;;;;;;11.78;75.34;99452.91;5049836;28;20063;-58
2023/04/23 05:43:36;;;;;;;24.85;21.83;;;;;;;11.89;75.45;99456.09;5052337;28;20048;-58
2023/04/23 05:46:05;;;;;;;22.50;19.40;;;;;;;12.03;75.39;99458.50;5040810;28;20049;-58
2023/04/23 05:48:33;;;;;;;26.27;21.60;;;;;;;12.07;75.46;99453.84;5032099;28;20050;-58
2023/04/23 05:51:00;;;;;;;26.98;21.38;;;;;;;12.17;75.14;99454.19;5035294;28;20053;-58
2023/04/23 05:53:28;;;;;;;25.50;20.73;;;;;;;12.35;75.35;99449.19;5051309;28;20060;-58
2023/04/23 05:55:55;;;;;;;25.92;20.80;;;;;;;12.61;75.57;99455.53;5052326;28;20061;-58
2023/04/23 05:58:23;;;;;;;22.40;18.55;;;;;;;12.91;74.20;99442.84;5046418;28;20418;-58
2023/04/23 06:00:53;;;;;;;19.20;17.15;;;;;;;13.19;73.84;99448.44;5044933;28;20049;-58
2023/04/23 06:03:20;;;;;;;19.67;17.58;;;;;;;13.52;72.73;99432.53;5047592;28;20102;-58
2023/04/23 06:05:47;;;;;;;17.67;15.75;;;;;;;13.88;72.71;99450.25;5047008;28;20052;-58
2023/04/23 06:08:14;;;;;;;17.33;14.88;;;;;;;14.27;72.02;99437.19;5053048;28;20136;-58
2023/04/23 06:10:41;;;;;;;16.60;14.00;;;;;;;14.40;69.45;99433.09;5054958;28;20466;-58
2023/04/23 06:13:09;;;;;;;14.55;12.82;;;;;;;14.59;69.07;99439.94;5055499;28;20064;-57
2023/04/23 06:15:37;;;;;;;14.80;13.30;;;;;;;14.70;69.61;99438.19;5044373;28;20049;-58
2023/04/23 06:18:05;;;;;;;15.30;12.98;;;;;;;14.69;68.14;99428.13;5036513;28;20053;-58
2023/04/23 06:20:33;;;;;;;15.15;12.80;;;;;;;14.84;67.21;99437.66;5046160;28;20059;-58
2023/04/23 06:23:01;;;;;;;14.32;12.82;;;;;;;15.07;67.25;99442.53;5055872;28;20048;-58
2023/04/23 06:25:29;;;;;;;16.42;13.68;;;;;;;15.31;67.01;99438.59;5055574;28;20064;-58
2023/04/23 06:27:57;;;;;;;15.38;12.90;;;;;;;15.57;66.74;99433.06;5054968;28;20056;-58
2023/04/23 06:30:24;;;;;;;14.50;13.00;;;;;;;15.52;65.36;99435.38;5051802;28;20052;-58
2023/04/23 06:32:52;;;;;;;14.13;12.63;;;;;;;15.54;64.20;99428.22;5055289;28;20056;-59
2023/04/23 06:35:20;;;;;;;14.80;12.82;;;;;;;15.79;65.55;99428.69;5055536;28;20474;-58
2023/04/23 06:37:48;;;;;;;13.45;12.10;;;;;;;16.11;64.54;99422.75;5055579;28;20052;-58
2023/04/23 06:40:15;;;;;;;13.30;11.88;;;;;;;16.21;63.86;99421.28;5053792;28;20049;-58
2023/04/23 06:42:44;;;;;;;11.40;10.20;;;;;;;16.37;61.83;99419.13;5052012;28;20049;-58
2023/04/23 06:45:11;;;;;;;11.10;9.73;;;;;;;16.38;61.90;99419.94;5036757;28;20052;-58
2023/04/23 06:47:39;;;;;;;11.55;10.35;;;;;;;16.47;61.96;99416.88;5035339;28;20499;-58
2023/04/23 06:50:08;;;;;;;10.07;8.95;;;;;;;16.55;61.40;99413.75;5035440;28;20046;-58
2023/04/23 06:52:37;;;;;;;10.50;9.10;;;;;;;16.69;61.36;99415.94;5035452;28;20482;-58
2023/04/23 06:55:05;;;;;;;10.63;9.52;;;;;;;16.53;59.82;99407.72;5035519;28;20057;-58
2023/04/23 06:57:32;;;;;;;10.68;9.18;;;;;;;17.00;60.10;99411.13;5035125;28;20406;-58
2023/04/23 06:59:59;;;;;;;10.70;9.68;;;;;;;17.12;60.77;99407.25;5042454;28;20419;-58
2023/04/23 07:02:26;;;;;;;10.10;9.10;;;;;;;17.31;60.10;99415.50;5053560;28;20052;-58
2023/04/23 07:04:54;;;;;;;9.32;8.32;;;;;;;17.39;59.71;99422.81;5055013;28;20501;-58
2023/04/23 07:07:21;;;;;;;10.10;8.98;;;;;;;17.36;58.29;99417.16;5039912;28;20391;-58
2023/04/23 07:09:50;;;;;;;10.90;8.93;;;;;;;17.59;58.23;99408.53;5034767;28;20080;-58
2023/04/23 07:12:17;;;;;;;11.82;7.07;;;;;;;17.91;57.13;99413.66;5036838;28;20057;-58
2023/04/23 07:14:44;;;;;;;10.23;7.38;;;;;;;18.01;55.51;99407.31;5042232;28;20062;-58
2023/04/23 07:17:12;;;;;;;8.25;7.07;;;;;;;18.08;54.09;99407.38;5052756;28;20053;-57
2023/04/23 07:19:39;;;;;;;6.88;6.28;;;;;;;18.56;54.86;99412.09;5044936;28;20053;-58
2023/04/23 07:22:06;;;;;;;7.80;6.88;;;;;;;18.87;53.08;99393.72;5034627;28;20064;-58
2023/04/23 07:24:33;;;;;;;7.50;6.43;;;;;;;18.73;52.06;99402.09;5034873;28;20060;-58
2023/04/23 07:27:03;;;;;;;6.85;6.05;;;;;;;19.08;51.21;99409.13;5034720;28;20057;-58
2023/04/23 07:29:30;;;;;;;6.47;5.80;;;;;;;18.94;51.10;99413.50;5041747;28;20061;-58
2023/04/23 07:31:57;;;;;;;6.18;5.55;;;;;;;18.87;51.69;99407.81;5044081;28;20481;-59
2023/04/23 07:34:24;;;;;;;6.22;5.63;;;;;;;18.69;51.34;99413.38;5042715;28;20056;-59
2023/04/23 07:36:52;;;;;;;6.43;5.82;;;;;;;18.55;52.82;99416.13;5035934;28;20057;-58
2023/04/23 07:39:19;;;;;;;6.68;5.13;;;;;;;18.80;52.54;99407.81;5039251;28;20494;-59
2023/04/23 07:41:47;;;;;;;5.32;4.82;;;;;;;19.10;51.05;99401.06;5041399;28;20052;-59
2023/04/23 07:44:16;;;;;;;6.20;5.25;;;;;;;19.43;50.58;99397.91;5034242;28;20053;-59
2023/04/23 07:46:43;;;;;;;6.13;5.40;;;;;;;20.08;49.06;99381.81;5030783;28;20058;-59
2023/04/23 07:49:10;;;;;;;6.63;5.03;;;;;;;21.23;45.92;99389.91;5034985;28;20055;-59
2023/04/23 07:51:38;;;;;;;6.53;4.57;;;;;;;22.46;43.78;99372.72;5041756;28;20049;-59
2023/04/23 07:54:07;;;;;;;6.40;4.35;;;;;;;23.89;41.46;99379.28;5033384;28;20487;-59
2023/04/23 07:56:38;;;;;;;4.97;4.28;;;;;;;24.40;40.31;99375.53;5044565;28;20053;-59
2023/04/23 07:59:09;;;;;;;5.68;4.00;;;;;;;24.45;39.94;99378.69;5035878;28;20068;-59
2023/04/23 08:01:38;;;;;;;6.07;4.30;;;;;;;25.45;37.22;99378.66;5040354;28;20053;-57
2023/04/23 08:04:07;;;;;;;4.70;4.10;;;;;;;26.27;35.73;99387.25;5044669;28;20401;-57
2023/04/23 08:06:35;;;;;;;4.95;3.88;;;;;;;25.69;35.96;99379.31;5043944;28;20056;-57
2023/04/23 08:09:05;;;;;;;4.18;3.78;;;;;;;25.32;36.54;99372.03;5045740;28;20489;-59
2023/04/23 08:11:32;;;;;;;5.80;4.10;;;;;;;25.74;35.80;99369.41;5045318;28;20057;-59
2023/04/23 08:14:03;;;;;;;4.72;3.75;;;;;;;26.99;34.26;99353.81;5042237;28;20405;-58
2023/04/23 08:16:30;;;;;;;4.05;3.42;;;;;;;28.74;31.30;99354.94;5037441;28;20060;-58
2023/04/23 08:18:59;;;;;;;4.97;3.65;;;;;;;28.10;32.04;99352.31;5041288;28;20053;-58
2023/04/23 08:21:27;;;;;;;5.53;4.00;;;;;;;28.76;31.15;99349.53;5048523;28;20059;-58
2023/04/23 08:23:55;;;;;;;4.80;3.78;;;;;;;28.76;31.31;99351.63;5039956;28;20057;-58
2023/04/23 08:26:23;;;;;;;4.25;3.38;;;;;;;27.17;32.23;99344.66;5038956;28;20097;-58
2023/04/23 08:28:50;;;;;;;4.70;3.63;;;;;;;26.19;33.34;99351.56;5038537;28;20075;-58
2023/04/23 08:31:18;;;;;;;4.90;3.40;;;;;;;26.55;33.37;99347.72;5044442;28;20054;-58
2023/04/23 08:33:45;;;;;;;4.80;3.35;;;;;;;27.51;31.36;99344.03;5053232;28;20441;-58
2023/04/23 08:36:14;;;;;;;4.35;3.20;;;;;;;27.88;31.15;99341.59;5053516;28;20489;-58
2023/04/23 08:38:41;;;;;;;5.50;3.30;;;;;;;26.88;32.08;99341.91;5052048;28;20053;-59
2023/04/23 08:41:11;;;;;;;4.75;3.20;;;;;;;27.53;31.10;99332.16;5046166;28;20056;-59
2023/04/23 08:43:46;;;;;;;4.53;3.10;;;;;;;28.36;30.53;99320.72;5044562;28;20060;-59
2023/04/23 08:46:14;;;;;;;5.28;3.95;;;;;;;29.03;29.49;99325.97;5036385;28;20052;-59
2023/04/23 08:48:46;;;;;;;5.30;3.23;;;;;;;28.51;29.33;99334.06;5049300;28;20048;-59
2023/04/23 08:51:18;;;;;;;4.28;3.28;;;;;;;28.43;29.49;99341.34;5042714;28;20053;-59
2023/04/23 08:53:51;;;;;;;4.13;2.97;;;;;;;28.02;30.77;99343.19;5034763;28;20048;-59
2023/04/23 08:56:19;;;;;;;4.40;3.10;;;;;;;27.56;31.18;99344.72;5032396;28;20053;-59
2023/04/23 08:58:48;;;;;;;4.07;3.08;;;;;;;28.43;29.97;99343.38;5037915;28;20060;-59
2023/04/23 09:01:15;;;;;;;4.53;3.22;;;;;;;29.97;28.21;99342.31;5035259;28;20482;-59
2023/04/23 09:03:43;;;;;;;5.45;2.90;;;;;;;28.76;29.05;99338.09;5050959;28;20056;-59
2023/04/23 09:06:11;;;;;;;4.17;2.53;;;;;;;28.12;30.02;99329.75;5041676;28;20068;-58
2023/04/23 09:08:40;;;;;;;3.97;2.85;;;;;;;29.98;27.63;99335.28;5050804;28;20061;-59
2023/04/23 09:11:10;;;;;;;3.00;2.08;;;;;;;30.44;26.93;99339.03;5050160;28;20049;-59
2023/04/23 09:13:40;;;;;;;3.95;2.40;;;;;;;27.92;29.62;99338.63;5052908;28;20064;-58
2023/04/23 09:16:07;;;;;;;3.85;2.15;;;;;;;26.92;31.56;99334.84;5042802;28;20220;-58
2023/04/23 09:18:35;;;;;;;3.92;2.25;;;;;;;27.05;31.55;99340.56;5032669;28;20056;-58
2023/04/23 09:21:04;;;;;;;4.82;1.88;;;;;;;28.99;29.67;99321.66;5033900;28;20425;-59
2023/04/23 09:23:33;;;;;;;3.80;2.72;;;;;;;30.61;26.73;99322.25;5047711;28;20057;-59
2023/04/23 09:26:06;;;;;;;4.43;1.98;;;;;;;32.38;25.17;99308.66;5029851;28;20079;-59
2023/04/23 09:28:37;;;;;;;3.65;2.50;;;;;;;32.58;23.98;99308.81;5040326;28;20044;-59
2023/04/23 09:31:05;;;;;;;3.67;2.17;;;;;;;33.44;23.03;99312.69;5039119;28;20046;-59
2023/04/23 09:33:35;;;;;;;3.40;2.08;;;;;;;33.91;22.47;99307.06;5030528;28;20057;-58
2023/04/23 09:36:09;;;;;;;3.72;2.00;;;;;;;34.61;21.80;99302.41;5032500;28;20053;-58
2023/04/23 09:38:36;;;;;;;4.78;1.85;;;;;;;34.62;21.46;99296.09;5037582;28;21249;-59
2023/04/23 09:41:23;;;;;;;4.30;1.65;;;;;;;35.64;20.69;99297.00;5036464;28;20060;-59
2023/04/23 09:43:53;;;;;;;4.53;2.03;;;;;;;33.54;22.49;99296.03;5034794;28;20049;-59
2023/04/23 09:46:33;;;;;;;3.65;2.20;;;;;;;33.21;23.20;99293.44;5036126;28;20064;-58
2023/04/23 09:49:02;;;;;;;4.70;1.73;;;;;;;33.23;22.45;99296.59;5034250;28;20053;-58
2023/04/23 09:51:30;;;;;;;3.08;1.80;;;;;;;33.46;21.98;99298.53;5031411;28;20046;-59
2023/04/23 09:53:58;;;;;;;2.97;1.83;;;;;;;32.50;24.07;99293.97;5034021;28;20057;-58
2023/04/23 09:56:26;;;;;;;4.67;1.90;;;;;;;33.58;22.52;99279.31;5039068;28;20052;-58
2023/04/23 09:58:54;;;;;;;2.42;1.55;;;;;;;31.52;24.35;99296.59;5041597;28;20504;-59
2023/04/23 10:01:29;;;;;;;3.63;1.90;;;;;;;32.03;24.19;99286.22;5030161;28;20060;-59
2023/04/23 10:03:56;;;;;;;6.68;2.33;;;;;;;30.34;26.77;99294.31;5032199;28;20046;-42
2023/04/23 10:06:30;;;;;;;3.85;1.70;;;;;;;29.72;26.93;99292.50;5038224;28;20056;-41
2023/04/23 10:08:58;;;;;;;5.10;1.88;;;;;;;29.23;27.18;99290.41;5039905;28;20520;-42
2023/04/23 10:11:27;;;;;;;2.15;1.45;;;;;;;30.07;26.95;99286.47;5029912;28;20064;-41
2023/04/23 10:13:55;;;;;;;4.25;1.73;;;;;;;28.68;28.11;99296.63;5036015;28;20053;-41
2023/04/23 10:16:23;;;;;;;4.90;1.40;;;;;;;28.36;28.16;99294.97;5031477;28;20052;-43
2023/04/23 10:18:54;;;;;;;5.10;2.10;;;;;;;26.58;30.43;99304.00;5034021;28;20054;-42
2023/04/23 10:21:28;;;;;;;3.78;1.60;;;;;;;28.18;29.00;99281.28;5033102;28;20609;-42
2023/04/23 10:23:58;;;;;;;2.10;1.40;;;;;;;28.89;27.08;99274.94;5034045;28;20417;-42
2023/04/23 10:26:27;;;;;;;2.22;1.52;;;;;;;28.61;27.12;99291.97;5035458;28;20069;-42
2023/04/23 10:28:56;;;;;;;2.58;1.58;;;;;;;27.97;28.47;99286.53;5035739;28;20494;-42
2023/04/23 10:31:24;;;;;;;5.40;1.60;;;;;;;26.70;30.34;99283.22;5031834;28;20052;-42
2023/04/23 10:33:53;;;;;;;2.75;1.42;;;;;;;26.59;31.03;99284.81;5034456;28;20056;-42
2023/04/23 10:36:20;;;;;;;2.60;1.50;;;;;;;26.65;30.72;99283.00;5033827;28;20057;-40
2023/04/23 10:38:48;;;;;;;2.28;1.40;;;;;;;26.81;30.16;99284.97;5038267;28;20517;-41
2023/04/23 10:41:20;;;;;;;2.33;1.40;;;;;;;26.65;29.97;99278.09;5035380;28;20049;-42
2023/04/23 10:43:49;;;;;;;2.53;1.52;;;;;;;26.39;30.54;99276.38;5029746;28;20049;-42
2023/04/23 10:46:29;;;;;;;3.03;1.73;;;;;;;25.78;31.12;99272.34;5030897;28;20057;-41
2023/04/23 10:49:06;;;;;;;3.17;1.38;;;;;;;25.63;31.09;99267.00;5031457;28;20053;-42
2023/04/23 10:51:34;;;;;;;3.05;1.40;;;;;;;25.11;31.42;99270.72;5038638;28;20041;-42
2023/04/23 10:54:03;;;;;;;2.80;1.50;;;;;;;25.09;31.59;99262.63;5038300;28;20056;-41
2023/04/23 10:56:31;;;;;;;2.78;1.75;;;;;;;24.82;31.30;99257.16;5041704;28;20350;-42
2023/04/23 10:59:00;;;;;;;4.97;1.40;;;;;;;23.90;32.93;99258.59;5033690;28;20060;-41
2023/04/23 11:01:29;;;;;;;2.95;1.70;;;;;;;23.56;34.09;99263.66;5045771;28;20495;-42
2023/04/23 11:03:56;;;;;;;3.13;1.50;;;;;;;23.60;34.35;99255.88;5035225;28;20410;-41
2023/04/23 11:06:51;;;;;;;2.38;1.58;;;;;;;24.04;33.89;99243.31;5049293;28;20077;-41
2023/04/23 11:09:36;;;;;;;3.60;1.50;;;;;;;24.08;33.32;99248.91;5045681;28;20053;-41
2023/04/23 11:12:06;;;;;;;2.58;1.40;;;;;;;23.85;33.50;99246.94;5050717;28;20053;-42
2023/04/23 11:14:37;;;;;;;3.05;1.30;;;;;;;24.02;34.04;99250.66;5044180;28;20049;-42
2023/04/23 11:17:06;;;;;;;2.63;1.52;;;;;;;23.77;33.60;99236.91;5044251;28;20052;-41
2023/04/23 11:19:36;;;;;;;9.68;1.55;;;;;;;24.01;33.55;99240.53;5042493;28;20406;-41
2023/04/23 11:22:06;;;;;;;1.70;1.10;;;;;;;24.18;33.28;99238.56;5033968;28;20056;-42
2023/04/23 11:24:40;;;;;;;4.00;1.63;;;;;;;25.31;31.31;99240.13;5039025;28;20065;-42
2023/04/23 11:27:09;;;;;;;4.63;1.98;;;;;;;25.72;30.70;99232.97;5039978;28;20061;-41
2023/04/23 11:29:40;;;;;;;2.72;1.40;;;;;;;26.43;29.46;99225.69;5038062;28;20060;-41